sensor_id;sensor_type;location;lat;lon;timestamp;P1;durP1;ratioP1;P2;durP2;ratioP2
7523;SDS011;3803;51.666;7.630;2023-02-08T00:00:15;30.40;;;16.30;;
7523;SDS011;3803;51.666;7.630;2023-02-08T00:00:37;31.40;;;15.75;;
7523;SDS011;3803;51.666;7.630;2023-02-08T00:00:58;28.75;;;15.38;;
7523;SDS011;3803;51.666;7.630;2023-02-08T00:01:20;24.98;;;14.60;;
7523;SDS011;3803;51.666;7.630;2023-02-08T00:01:42;23.42;;;14.68;;
7523;SDS011;3803;51.666;7.630;2023-02-08T00:02:03;23.77;;;14.90;;
7523;SDS011;3803;51.666;7.630;2023-02-08T00:02:24;25.60;;;15.50;;
7523;SDS011;3803;51.666;7.630;2023-02-08T00:02:44;26.40;;;15.50;;
7523;SDS011;3803;51.666;7.630;2023-02-08T00:03:05;26.80;;;15.68;;
7523;SDS011;3803;51.666;7.630;2023-02-08T00:03:34;25.75;;;15.05;;
7523;SDS011;3803;51.666;7.630;2023-02-08T00:03:55;25.55;;;14.38;;
7523;SDS011;3803;51.666;7.630;2023-02-08T00:04:16;25.35;;;14.35;;
7523;SDS011;3803;51.666;7.630;2023-02-08T00:04:36;25.98;;;15.20;;
7523;SDS011;3803;51.666;7.630;2023-02-08T00:04:57;26.33;;;14.90;;
7523;SDS011;3803;51.666;7.630;2023-02-08T00:05:17;26.77;;;15.05;;
7523;SDS011;3803;51.666;7.630;2023-02-08T00:05:38;25.85;;;13.98;;
7523;SDS011;3803;51.666;7.630;2023-02-08T00:05:59;25.00;;;14.00;;
7523;SDS011;3803;51.666;7.630;2023-02-08T00:06:19;24.23;;;14.07;;
7523;SDS011;3803;51.666;7.630;2023-02-08T00:06:40;23.33;;;14.23;;
7523;SDS011;3803;51.666;7.630;2023-02-08T00:07:01;24.77;;;14.05;;
7523;SDS011;3803;51.666;7.630;2023-02-08T00:07:21;24.63;;;14.20;;
7523;SDS011;3803;51.666;7.630;2023-02-08T00:07:42;23.73;;;13.80;;
7523;SDS011;3803;51.666;7.630;2023-02-08T00:08:02;22.40;;;13.88;;
7523;SDS011;3803;51.666;7.630;2023-02-08T00:08:23;22.52;;;13.45;;
7523;SDS011;3803;51.666;7.630;2023-02-08T00:08:44;23.63;;;13.70;;
7523;SDS011;3803;51.666;7.630;2023-02-08T00:09:05;24.05;;;13.68;;
7523;SDS011;3803;51.666;7.630;2023-02-08T00:09:26;23.10;;;13.60;;
7523;SDS011;3803;51.666;7.630;2023-02-08T00:09:47;24.17;;;13.97;;
7523;SDS011;3803;51.666;7.630;2023-02-08T00:10:08;24.60;;;14.10;;
7523;SDS011;3803;51.666;7.630;2023-02-08T00:10:29;24.17;;;14.38;;
7523;SDS011;3803;51.666;7.630;2023-02-08T00:10:51;24.00;;;14.75;;
7523;SDS011;3803;51.666;7.630;2023-02-08T00:11:12;23.10;;;14.50;;
7523;SDS011;3803;51.666;7.630;2023-02-08T00:11:32;23.58;;;14.52;;
7523;SDS011;3803;51.666;7.630;2023-02-08T00:11:53;23.67;;;14.43;;
7523;SDS011;3803;51.666;7.630;2023-02-08T00:12:14;23.88;;;14.65;;
7523;SDS011;3803;51.666;7.630;2023-02-08T00:12:35;24.67;;;14.70;;
7523;SDS011;3803;51.666;7.630;2023-02-08T00:12:56;24.73;;;14.77;;
7523;SDS011;3803;51.666;7.630;2023-02-08T00:13:17;28.15;;;15.18;;
7523;SDS011;3803;51.666;7.630;2023-02-08T00:13:38;26.98;;;14.93;;
7523;SDS011;3803;51.666;7.630;2023-02-08T00:14:00;29.52;;;15.20;;
7523;SDS011;3803;51.666;7.630;2023-02-08T00:14:21;26.83;;;14.87;;
7523;SDS011;3803;51.666;7.630;2023-02-08T00:14:41;25.03;;;14.30;;
7523;SDS011;3803;51.666;7.630;2023-02-08T00:15:03;23.65;;;13.80;;
7523;SDS011;3803;51.666;7.630;2023-02-08T00:15:24;24.15;;;13.98;;
7523;SDS011;3803;51.666;7.630;2023-02-08T00:15:45;24.75;;;14.15;;
7523;SDS011;3803;51.666;7.630;2023-02-08T00:16:06;24.00;;;14.18;;
7523;SDS011;3803;51.666;7.630;2023-02-08T00:16:27;22.73;;;13.80;;
7523;SDS011;3803;51.666;7.630;2023-02-08T00:16:48;21.70;;;13.40;;
7523;SDS011;3803;51.666;7.630;2023-02-08T00:17:08;23.02;;;13.77;;
7523;SDS011;3803;51.666;7.630;2023-02-08T00:17:29;25.93;;;14.43;;
7523;SDS011;3803;51.666;7.630;2023-02-08T00:17:50;25.50;;;14.15;;
7523;SDS011;3803;51.666;7.630;2023-02-08T00:18:11;23.58;;;13.63;;
7523;SDS011;3803;51.666;7.630;2023-02-08T00:18:32;22.52;;;13.25;;
7523;SDS011;3803;51.666;7.630;2023-02-08T00:18:53;22.67;;;13.30;;
7523;SDS011;3803;51.666;7.630;2023-02-08T00:19:15;23.30;;;13.48;;
7523;SDS011;3803;51.666;7.630;2023-02-08T00:19:35;25.20;;;13.77;;
7523;SDS011;3803;51.666;7.630;2023-02-08T00:19:56;25.33;;;13.75;;
7523;SDS011;3803;51.666;7.630;2023-02-08T00:20:17;24.50;;;13.30;;
7523;SDS011;3803;51.666;7.630;2023-02-08T00:20:38;21.42;;;12.85;;
7523;SDS011;3803;51.666;7.630;2023-02-08T00:21:00;21.67;;;13.10;;
7523;SDS011;3803;51.666;7.630;2023-02-08T00:21:27;21.60;;;13.43;;
7523;SDS011;3803;51.666;7.630;2023-02-08T00:21:48;21.60;;;13.77;;
7523;SDS011;3803;51.666;7.630;2023-02-08T00:22:08;23.70;;;14.10;;
7523;SDS011;3803;51.666;7.630;2023-02-08T00:22:29;24.47;;;14.57;;
7523;SDS011;3803;51.666;7.630;2023-02-08T00:22:50;24.02;;;14.57;;
7523;SDS011;3803;51.666;7.630;2023-02-08T00:23:11;22.23;;;14.23;;
7523;SDS011;3803;51.666;7.630;2023-02-08T00:23:33;23.42;;;13.80;;
7523;SDS011;3803;51.666;7.630;2023-02-08T00:23:53;24.17;;;14.00;;
7523;SDS011;3803;51.666;7.630;2023-02-08T00:24:14;23.83;;;14.10;;
7523;SDS011;3803;51.666;7.630;2023-02-08T00:24:34;23.07;;;13.93;;
7523;SDS011;3803;51.666;7.630;2023-02-08T00:24:55;25.25;;;13.85;;
7523;SDS011;3803;51.666;7.630;2023-02-08T00:25:15;26.20;;;14.23;;
7523;SDS011;3803;51.666;7.630;2023-02-08T00:25:36;24.67;;;14.20;;
7523;SDS011;3803;51.666;7.630;2023-02-08T00:25:57;22.95;;;14.20;;
7523;SDS011;3803;51.666;7.630;2023-02-08T00:26:18;23.27;;;14.13;;
7523;SDS011;3803;51.666;7.630;2023-02-08T00:26:39;24.55;;;14.55;;
7523;SDS011;3803;51.666;7.630;2023-02-08T00:27:00;24.77;;;14.90;;
7523;SDS011;3803;51.666;7.630;2023-02-08T00:27:21;24.10;;;14.85;;
7523;SDS011;3803;51.666;7.630;2023-02-08T00:27:44;23.80;;;14.80;;
7523;SDS011;3803;51.666;7.630;2023-02-08T00:28:06;23.63;;;14.55;;
7523;SDS011;3803;51.666;7.630;2023-02-08T00:28:28;23.70;;;14.50;;
7523;SDS011;3803;51.666;7.630;2023-02-08T00:28:48;24.95;;;14.80;;
7523;SDS011;3803;51.666;7.630;2023-02-08T00:29:11;23.52;;;14.45;;
7523;SDS011;3803;51.666;7.630;2023-02-08T00:29:31;26.33;;;14.60;;
7523;SDS011;3803;51.666;7.630;2023-02-08T00:29:52;27.65;;;14.75;;
7523;SDS011;3803;51.666;7.630;2023-02-08T00:30:13;27.05;;;14.82;;
7523;SDS011;3803;51.666;7.630;2023-02-08T00:30:34;23.05;;;14.13;;
7523;SDS011;3803;51.666;7.630;2023-02-08T00:30:57;22.10;;;13.82;;
7523;SDS011;3803;51.666;7.630;2023-02-08T00:31:18;23.23;;;13.97;;
7523;SDS011;3803;51.666;7.630;2023-02-08T00:31:38;23.25;;;14.18;;
7523;SDS011;3803;51.666;7.630;2023-02-08T00:31:59;22.97;;;14.47;;
7523;SDS011;3803;51.666;7.630;2023-02-08T00:32:19;22.17;;;14.30;;
7523;SDS011;3803;51.666;7.630;2023-02-08T00:32:40;22.90;;;14.40;;
7523;SDS011;3803;51.666;7.630;2023-02-08T00:33:01;22.45;;;14.10;;
7523;SDS011;3803;51.666;7.630;2023-02-08T00:33:22;23.05;;;14.18;;
7523;SDS011;3803;51.666;7.630;2023-02-08T00:33:42;23.33;;;14.20;;
7523;SDS011;3803;51.666;7.630;2023-02-08T00:34:03;23.97;;;14.50;;
7523;SDS011;3803;51.666;7.630;2023-02-08T00:34:24;24.60;;;14.75;;
7523;SDS011;3803;51.666;7.630;2023-02-08T00:34:44;25.27;;;14.70;;
7523;SDS011;3803;51.666;7.630;2023-02-08T00:35:05;25.20;;;14.93;;
7523;SDS011;3803;51.666;7.630;2023-02-08T00:35:26;22.50;;;14.75;;
7523;SDS011;3803;51.666;7.630;2023-02-08T00:35:47;22.33;;;14.73;;
7523;SDS011;3803;51.666;7.630;2023-02-08T00:36:08;22.63;;;14.50;;
7523;SDS011;3803;51.666;7.630;2023-02-08T00:36:30;26.70;;;14.70;;
7523;SDS011;3803;51.666;7.630;2023-02-08T00:36:50;28.00;;;14.70;;
7523;SDS011;3803;51.666;7.630;2023-02-08T00:37:11;27.03;;;14.43;;
7523;SDS011;3803;51.666;7.630;2023-02-08T00:37:31;26.30;;;14.75;;
7523;SDS011;3803;51.666;7.630;2023-02-08T00:37:52;25.20;;;14.50;;
7523;SDS011;3803;51.666;7.630;2023-02-08T00:38:24;24.37;;;14.67;;
7523;SDS011;3803;51.666;7.630;2023-02-08T00:38:45;24.05;;;14.75;;
7523;SDS011;3803;51.666;7.630;2023-02-08T00:39:05;23.35;;;14.32;;
7523;SDS011;3803;51.666;7.630;2023-02-08T00:39:26;23.65;;;14.50;;
7523;SDS011;3803;51.666;7.630;2023-02-08T00:39:47;22.95;;;14.25;;
7523;SDS011;3803;51.666;7.630;2023-02-08T00:40:09;23.52;;;14.30;;
7523;SDS011;3803;51.666;7.630;2023-02-08T00:40:30;24.02;;;14.52;;
7523;SDS011;3803;51.666;7.630;2023-02-08T00:40:50;24.38;;;14.65;;
7523;SDS011;3803;51.666;7.630;2023-02-08T00:41:11;25.92;;;15.18;;
7523;SDS011;3803;51.666;7.630;2023-02-08T00:41:32;26.20;;;15.23;;
7523;SDS011;3803;51.666;7.630;2023-02-08T00:41:52;26.58;;;15.55;;
7523;SDS011;3803;51.666;7.630;2023-02-08T00:42:13;24.67;;;14.90;;
7523;SDS011;3803;51.666;7.630;2023-02-08T00:42:34;22.60;;;14.40;;
7523;SDS011;3803;51.666;7.630;2023-02-08T00:42:54;23.77;;;14.30;;
7523;SDS011;3803;51.666;7.630;2023-02-08T00:43:15;23.60;;;14.67;;
7523;SDS011;3803;51.666;7.630;2023-02-08T00:43:36;23.63;;;14.73;;
7523;SDS011;3803;51.666;7.630;2023-02-08T00:43:56;21.73;;;14.30;;
7523;SDS011;3803;51.666;7.630;2023-02-08T00:44:17;21.60;;;14.27;;
7523;SDS011;3803;51.666;7.630;2023-02-08T00:44:38;21.90;;;14.10;;
7523;SDS011;3803;51.666;7.630;2023-02-08T00:44:58;23.70;;;14.47;;
7523;SDS011;3803;51.666;7.630;2023-02-08T00:45:19;23.80;;;14.25;;
7523;SDS011;3803;51.666;7.630;2023-02-08T00:45:40;24.65;;;14.60;;
7523;SDS011;3803;51.666;7.630;2023-02-08T00:46:01;22.17;;;13.90;;
7523;SDS011;3803;51.666;7.630;2023-02-08T00:46:21;22.38;;;13.77;;
7523;SDS011;3803;51.666;7.630;2023-02-08T00:46:43;22.55;;;13.82;;
7523;SDS011;3803;51.666;7.630;2023-02-08T00:47:04;23.27;;;14.18;;
7523;SDS011;3803;51.666;7.630;2023-02-08T00:47:25;22.30;;;14.30;;
7523;SDS011;3803;51.666;7.630;2023-02-08T00:47:47;21.35;;;13.90;;
7523;SDS011;3803;51.666;7.630;2023-02-08T00:48:08;21.23;;;13.77;;
7523;SDS011;3803;51.666;7.630;2023-02-08T00:48:29;22.48;;;13.80;;
7523;SDS011;3803;51.666;7.630;2023-02-08T00:48:51;22.25;;;13.85;;
7523;SDS011;3803;51.666;7.630;2023-02-08T00:49:12;21.60;;;13.82;;
7523;SDS011;3803;51.666;7.630;2023-02-08T00:49:32;20.42;;;13.10;;
7523;SDS011;3803;51.666;7.630;2023-02-08T00:49:53;19.57;;;12.80;;
7523;SDS011;3803;51.666;7.630;2023-02-08T00:50:13;20.67;;;12.73;;
7523;SDS011;3803;51.666;7.630;2023-02-08T00:50:34;20.33;;;13.15;;
7523;SDS011;3803;51.666;7.630;2023-02-08T00:50:57;25.17;;;13.40;;
7523;SDS011;3803;51.666;7.630;2023-02-08T00:51:26;24.90;;;13.40;;
7523;SDS011;3803;51.666;7.630;2023-02-08T00:51:47;22.60;;;13.63;;
7523;SDS011;3803;51.666;7.630;2023-02-08T00:52:07;23.17;;;13.97;;
7523;SDS011;3803;51.666;7.630;2023-02-08T00:52:28;22.85;;;14.10;;
7523;SDS011;3803;51.666;7.630;2023-02-08T00:52:48;21.98;;;13.60;;
7523;SDS011;3803;51.666;7.630;2023-02-08T00:53:09;22.33;;;13.97;;
7523;SDS011;3803;51.666;7.630;2023-02-08T00:53:30;22.20;;;13.70;;
7523;SDS011;3803;51.666;7.630;2023-02-08T00:53:53;22.55;;;13.60;;
7523;SDS011;3803;51.666;7.630;2023-02-08T00:54:15;21.08;;;13.23;;
7523;SDS011;3803;51.666;7.630;2023-02-08T00:54:37;21.00;;;13.68;;
7523;SDS011;3803;51.666;7.630;2023-02-08T00:54:58;22.83;;;14.32;;
7523;SDS011;3803;51.666;7.630;2023-02-08T00:55:19;23.80;;;14.10;;
7523;SDS011;3803;51.666;7.630;2023-02-08T00:55:52;22.30;;;13.65;;
7523;SDS011;3803;51.666;7.630;2023-02-08T00:56:14;21.52;;;13.50;;
7523;SDS011;3803;51.666;7.630;2023-02-08T00:56:35;20.15;;;13.02;;
7523;SDS011;3803;51.666;7.630;2023-02-08T00:56:55;21.10;;;12.93;;
7523;SDS011;3803;51.666;7.630;2023-02-08T00:57:16;22.50;;;12.70;;
7523;SDS011;3803;51.666;7.630;2023-02-08T00:57:37;23.23;;;13.00;;
7523;SDS011;3803;51.666;7.630;2023-02-08T00:57:57;23.53;;;13.20;;
7523;SDS011;3803;51.666;7.630;2023-02-08T00:58:18;23.10;;;13.60;;
7523;SDS011;3803;51.666;7.630;2023-02-08T00:58:39;24.00;;;13.77;;
7523;SDS011;3803;51.666;7.630;2023-02-08T00:59:00;23.13;;;13.50;;
7523;SDS011;3803;51.666;7.630;2023-02-08T00:59:20;22.65;;;13.73;;
7523;SDS011;3803;51.666;7.630;2023-02-08T00:59:49;21.13;;;13.77;;
7523;SDS011;3803;51.666;7.630;2023-02-08T01:00:10;21.33;;;14.00;;
7523;SDS011;3803;51.666;7.630;2023-02-08T01:00:34;22.17;;;13.68;;
7523;SDS011;3803;51.666;7.630;2023-02-08T01:00:55;23.90;;;13.50;;
7523;SDS011;3803;51.666;7.630;2023-02-08T01:01:15;23.30;;;13.57;;
7523;SDS011;3803;51.666;7.630;2023-02-08T01:01:36;22.73;;;13.67;;
7523;SDS011;3803;51.666;7.630;2023-02-08T01:01:57;21.77;;;13.70;;
7523;SDS011;3803;51.666;7.630;2023-02-08T01:02:18;22.83;;;14.03;;
7523;SDS011;3803;51.666;7.630;2023-02-08T01:02:38;24.83;;;14.73;;
7523;SDS011;3803;51.666;7.630;2023-02-08T01:03:53;20.80;;;12.90;;
7523;SDS011;3803;51.666;7.630;2023-02-08T01:04:25;23.10;;;13.97;;
7523;SDS011;3803;51.666;7.630;2023-02-08T01:04:46;23.05;;;14.60;;
7523;SDS011;3803;51.666;7.630;2023-02-08T01:05:07;22.33;;;14.43;;
7523;SDS011;3803;51.666;7.630;2023-02-08T01:05:28;23.33;;;14.15;;
7523;SDS011;3803;51.666;7.630;2023-02-08T01:05:48;23.70;;;14.07;;
7523;SDS011;3803;51.666;7.630;2023-02-08T01:06:10;23.30;;;13.90;;
7523;SDS011;3803;51.666;7.630;2023-02-08T01:06:33;20.98;;;13.32;;
7523;SDS011;3803;51.666;7.630;2023-02-08T01:06:54;22.90;;;13.40;;
7523;SDS011;3803;51.666;7.630;2023-02-08T01:07:15;22.75;;;13.23;;
7523;SDS011;3803;51.666;7.630;2023-02-08T01:07:36;21.47;;;12.73;;
7523;SDS011;3803;51.666;7.630;2023-02-08T01:07:57;20.85;;;12.75;;
7523;SDS011;3803;51.666;7.630;2023-02-08T01:08:18;21.40;;;12.48;;
7523;SDS011;3803;51.666;7.630;2023-02-08T01:08:40;21.42;;;12.40;;
7523;SDS011;3803;51.666;7.630;2023-02-08T01:09:00;19.52;;;11.90;;
7523;SDS011;3803;51.666;7.630;2023-02-08T01:09:21;19.00;;;11.75;;
7523;SDS011;3803;51.666;7.630;2023-02-08T01:09:43;19.05;;;12.00;;
7523;SDS011;3803;51.666;7.630;2023-02-08T01:10:04;22.30;;;12.40;;
7523;SDS011;3803;51.666;7.630;2023-02-08T01:10:26;24.08;;;12.15;;
7523;SDS011;3803;51.666;7.630;2023-02-08T01:10:46;24.70;;;12.50;;
7523;SDS011;3803;51.666;7.630;2023-02-08T01:11:08;21.33;;;12.70;;
7523;SDS011;3803;51.666;7.630;2023-02-08T01:11:31;19.58;;;12.57;;
7523;SDS011;3803;51.666;7.630;2023-02-08T01:11:53;18.52;;;12.27;;
7523;SDS011;3803;51.666;7.630;2023-02-08T01:12:14;19.45;;;12.40;;
7523;SDS011;3803;51.666;7.630;2023-02-08T01:12:44;23.52;;;13.30;;
7523;SDS011;3803;51.666;7.630;2023-02-08T01:13:04;23.35;;;13.40;;
7523;SDS011;3803;51.666;7.630;2023-02-08T01:13:34;23.35;;;12.82;;
7523;SDS011;3803;51.666;7.630;2023-02-08T01:13:55;20.27;;;12.40;;
7523;SDS011;3803;51.666;7.630;2023-02-08T01:14:17;20.95;;;12.80;;
7523;SDS011;3803;51.666;7.630;2023-02-08T01:14:38;19.43;;;12.47;;
7523;SDS011;3803;51.666;7.630;2023-02-08T01:14:59;21.27;;;12.90;;
7523;SDS011;3803;51.666;7.630;2023-02-08T01:15:20;19.63;;;12.60;;
7523;SDS011;3803;51.666;7.630;2023-02-08T01:15:41;19.50;;;13.00;;
7523;SDS011;3803;51.666;7.630;2023-02-08T01:16:09;19.10;;;12.43;;
7523;SDS011;3803;51.666;7.630;2023-02-08T01:16:31;20.20;;;12.90;;
7523;SDS011;3803;51.666;7.630;2023-02-08T01:16:53;20.30;;;13.18;;
7523;SDS011;3803;51.666;7.630;2023-02-08T01:17:14;20.20;;;12.50;;
7523;SDS011;3803;51.666;7.630;2023-02-08T01:17:34;22.33;;;12.38;;
7523;SDS011;3803;51.666;7.630;2023-02-08T01:17:55;23.05;;;12.73;;
7523;SDS011;3803;51.666;7.630;2023-02-08T01:18:17;22.52;;;12.95;;
7523;SDS011;3803;51.666;7.630;2023-02-08T01:18:38;20.40;;;12.60;;
7523;SDS011;3803;51.666;7.630;2023-02-08T01:19:02;21.00;;;12.30;;
7523;SDS011;3803;51.666;7.630;2023-02-08T01:19:23;21.77;;;12.35;;
7523;SDS011;3803;51.666;7.630;2023-02-08T01:19:44;22.23;;;12.80;;
7523;SDS011;3803;51.666;7.630;2023-02-08T01:20:04;22.15;;;12.95;;
7523;SDS011;3803;51.666;7.630;2023-02-08T01:20:25;22.90;;;13.07;;
7523;SDS011;3803;51.666;7.630;2023-02-08T01:20:46;22.58;;;13.10;;
7523;SDS011;3803;51.666;7.630;2023-02-08T01:21:10;23.57;;;13.20;;
7523;SDS011;3803;51.666;7.630;2023-02-08T01:21:33;23.20;;;13.15;;
7523;SDS011;3803;51.666;7.630;2023-02-08T01:21:56;23.75;;;13.38;;
7523;SDS011;3803;51.666;7.630;2023-02-08T01:22:17;23.08;;;13.25;;
7523;SDS011;3803;51.666;7.630;2023-02-08T01:22:37;20.60;;;13.37;;
7523;SDS011;3803;51.666;7.630;2023-02-08T01:22:58;19.43;;;13.10;;
7523;SDS011;3803;51.666;7.630;2023-02-08T01:23:18;19.80;;;13.20;;
7523;SDS011;3803;51.666;7.630;2023-02-08T01:23:39;19.70;;;13.17;;
7523;SDS011;3803;51.666;7.630;2023-02-08T01:24:00;20.55;;;13.40;;
7523;SDS011;3803;51.666;7.630;2023-02-08T01:24:23;20.30;;;13.20;;
7523;SDS011;3803;51.666;7.630;2023-02-08T01:24:44;21.05;;;13.05;;
7523;SDS011;3803;51.666;7.630;2023-02-08T01:25:04;20.40;;;12.97;;
7523;SDS011;3803;51.666;7.630;2023-02-08T01:25:26;22.55;;;13.38;;
7523;SDS011;3803;51.666;7.630;2023-02-08T01:25:46;22.38;;;13.40;;
7523;SDS011;3803;51.666;7.630;2023-02-08T01:26:07;22.93;;;13.70;;
7523;SDS011;3803;51.666;7.630;2023-02-08T01:26:29;21.80;;;14.10;;
7523;SDS011;3803;51.666;7.630;2023-02-08T01:26:50;21.04;;;14.00;;
7523;SDS011;3803;51.666;7.630;2023-02-08T01:27:11;22.02;;;14.02;;
7523;SDS011;3803;51.666;7.630;2023-02-08T01:27:32;22.65;;;13.90;;
7523;SDS011;3803;51.666;7.630;2023-02-08T01:27:53;22.77;;;13.65;;
7523;SDS011;3803;51.666;7.630;2023-02-08T01:28:16;24.13;;;13.65;;
7523;SDS011;3803;51.666;7.630;2023-02-08T01:28:37;25.50;;;13.90;;
7523;SDS011;3803;51.666;7.630;2023-02-08T01:28:58;25.58;;;14.02;;
7523;SDS011;3803;51.666;7.630;2023-02-08T01:29:19;24.85;;;14.32;;
7523;SDS011;3803;51.666;7.630;2023-02-08T01:29:39;24.25;;;13.80;;
7523;SDS011;3803;51.666;7.630;2023-02-08T01:30:00;24.53;;;13.70;;
7523;SDS011;3803;51.666;7.630;2023-02-08T01:30:22;24.27;;;13.57;;
7523;SDS011;3803;51.666;7.630;2023-02-08T01:30:43;23.83;;;14.05;;
7523;SDS011;3803;51.666;7.630;2023-02-08T01:31:08;22.00;;;13.88;;
7523;SDS011;3803;51.666;7.630;2023-02-08T01:31:34;20.17;;;13.40;;
7523;SDS011;3803;51.666;7.630;2023-02-08T01:31:56;18.98;;;13.43;;
7523;SDS011;3803;51.666;7.630;2023-02-08T01:32:17;18.87;;;13.27;;
7523;SDS011;3803;51.666;7.630;2023-02-08T01:32:38;20.58;;;13.65;;
7523;SDS011;3803;51.666;7.630;2023-02-08T01:32:58;22.38;;;13.50;;
7523;SDS011;3803;51.666;7.630;2023-02-08T01:33:21;23.35;;;13.50;;
7523;SDS011;3803;51.666;7.630;2023-02-08T01:33:42;21.90;;;12.93;;
7523;SDS011;3803;51.666;7.630;2023-02-08T01:34:04;21.40;;;13.13;;
7523;SDS011;3803;51.666;7.630;2023-02-08T01:34:25;21.75;;;13.27;;
7523;SDS011;3803;51.666;7.630;2023-02-08T01:34:46;21.90;;;12.98;;
7523;SDS011;3803;51.666;7.630;2023-02-08T01:35:06;21.77;;;12.93;;
7523;SDS011;3803;51.666;7.630;2023-02-08T01:35:27;21.30;;;12.93;;
7523;SDS011;3803;51.666;7.630;2023-02-08T01:35:51;22.30;;;13.27;;
7523;SDS011;3803;51.666;7.630;2023-02-08T01:36:12;21.98;;;13.55;;
7523;SDS011;3803;51.666;7.630;2023-02-08T01:36:36;23.13;;;14.00;;
7523;SDS011;3803;51.666;7.630;2023-02-08T01:36:57;24.55;;;13.65;;
7523;SDS011;3803;51.666;7.630;2023-02-08T01:37:17;24.87;;;13.43;;
7523;SDS011;3803;51.666;7.630;2023-02-08T01:37:40;26.70;;;13.73;;
7523;SDS011;3803;51.666;7.630;2023-02-08T01:38:02;24.25;;;13.80;;
7523;SDS011;3803;51.666;7.630;2023-02-08T01:38:24;23.30;;;14.23;;
7523;SDS011;3803;51.666;7.630;2023-02-08T01:38:46;21.60;;;14.30;;
7523;SDS011;3803;51.666;7.630;2023-02-08T01:39:08;22.45;;;14.10;;
7523;SDS011;3803;51.666;7.630;2023-02-08T01:39:31;22.75;;;14.07;;
7523;SDS011;3803;51.666;7.630;2023-02-08T01:39:52;23.47;;;14.03;;
7523;SDS011;3803;51.666;7.630;2023-02-08T01:40:14;23.55;;;13.82;;
7523;SDS011;3803;51.666;7.630;2023-02-08T01:40:35;23.92;;;13.90;;
7523;SDS011;3803;51.666;7.630;2023-02-08T01:40:55;22.48;;;13.70;;
7523;SDS011;3803;51.666;7.630;2023-02-08T01:41:20;23.03;;;14.20;;
7523;SDS011;3803;51.666;7.630;2023-02-08T01:41:49;22.85;;;13.85;;
7523;SDS011;3803;51.666;7.630;2023-02-08T01:42:14;22.48;;;13.73;;
7523;SDS011;3803;51.666;7.630;2023-02-08T01:42:37;22.50;;;13.88;;
7523;SDS011;3803;51.666;7.630;2023-02-08T01:42:58;22.67;;;14.02;;
7523;SDS011;3803;51.666;7.630;2023-02-08T01:43:29;21.52;;;14.13;;
7523;SDS011;3803;51.666;7.630;2023-02-08T01:45:07;22.65;;;14.05;;
7523;SDS011;3803;51.666;7.630;2023-02-08T01:45:35;20.23;;;13.60;;
7523;SDS011;3803;51.666;7.630;2023-02-08T01:45:56;21.27;;;13.68;;
7523;SDS011;3803;51.666;7.630;2023-02-08T01:46:17;22.70;;;13.88;;
7523;SDS011;3803;51.666;7.630;2023-02-08T01:46:41;23.15;;;14.35;;
7523;SDS011;3803;51.666;7.630;2023-02-08T01:47:03;23.48;;;14.18;;
7523;SDS011;3803;51.666;7.630;2023-02-08T01:47:24;24.63;;;14.17;;
7523;SDS011;3803;51.666;7.630;2023-02-08T01:47:49;23.10;;;14.10;;
7523;SDS011;3803;51.666;7.630;2023-02-08T01:48:19;23.85;;;15.32;;
7523;SDS011;3803;51.666;7.630;2023-02-08T01:48:44;25.02;;;15.32;;
7523;SDS011;3803;51.666;7.630;2023-02-08T01:49:12;26.03;;;15.20;;
7523;SDS011;3803;51.666;7.630;2023-02-08T01:49:37;25.83;;;14.65;;
7523;SDS011;3803;51.666;7.630;2023-02-08T01:49:58;24.77;;;14.55;;
7523;SDS011;3803;51.666;7.630;2023-02-08T01:50:20;28.14;;;14.60;;
7523;SDS011;3803;51.666;7.630;2023-02-08T01:50:47;31.48;;;15.18;;
7523;SDS011;3803;51.666;7.630;2023-02-08T01:51:16;32.50;;;15.65;;
7523;SDS011;3803;51.666;7.630;2023-02-08T01:51:49;26.38;;;15.25;;
7523;SDS011;3803;51.666;7.630;2023-02-08T01:52:16;25.30;;;14.68;;
7523;SDS011;3803;51.666;7.630;2023-02-08T01:52:39;25.80;;;15.05;;
7523;SDS011;3803;51.666;7.630;2023-02-08T01:53:02;25.73;;;15.45;;
7523;SDS011;3803;51.666;7.630;2023-02-08T01:53:37;27.70;;;15.67;;
7523;SDS011;3803;51.666;7.630;2023-02-08T01:53:59;25.80;;;15.35;;
7523;SDS011;3803;51.666;7.630;2023-02-08T01:54:23;25.48;;;14.95;;
7523;SDS011;3803;51.666;7.630;2023-02-08T01:54:51;25.40;;;14.73;;
7523;SDS011;3803;51.666;7.630;2023-02-08T01:55:20;22.15;;;14.00;;
7523;SDS011;3803;51.666;7.630;2023-02-08T01:55:50;21.58;;;13.50;;
7523;SDS011;3803;51.666;7.630;2023-02-08T01:56:21;22.77;;;13.52;;
7523;SDS011;3803;51.666;7.630;2023-02-08T01:56:46;25.25;;;14.85;;
7523;SDS011;3803;51.666;7.630;2023-02-08T01:57:08;25.52;;;14.73;;
7523;SDS011;3803;51.666;7.630;2023-02-08T01:57:32;24.77;;;14.43;;
7523;SDS011;3803;51.666;7.630;2023-02-08T01:57:54;23.50;;;14.10;;
7523;SDS011;3803;51.666;7.630;2023-02-08T01:58:18;23.20;;;14.65;;
7523;SDS011;3803;51.666;7.630;2023-02-08T01:58:42;21.55;;;13.82;;
7523;SDS011;3803;51.666;7.630;2023-02-08T01:59:59;23.73;;;14.10;;
7523;SDS011;3803;51.666;7.630;2023-02-08T02:00:34;23.70;;;13.90;;
7523;SDS011;3803;51.666;7.630;2023-02-08T02:00:55;23.53;;;14.00;;
7523;SDS011;3803;51.666;7.630;2023-02-08T02:01:15;23.33;;;13.53;;
7523;SDS011;3803;51.666;7.630;2023-02-08T02:01:36;26.10;;;14.20;;
7523;SDS011;3803;51.666;7.630;2023-02-08T02:01:59;23.63;;;13.95;;
7523;SDS011;3803;51.666;7.630;2023-02-08T02:02:21;22.38;;;14.07;;
7523;SDS011;3803;51.666;7.630;2023-02-08T02:02:43;20.58;;;13.30;;
7523;SDS011;3803;51.666;7.630;2023-02-08T02:03:05;21.63;;;13.60;;
7523;SDS011;3803;51.666;7.630;2023-02-08T02:03:27;22.13;;;13.07;;
7523;SDS011;3803;51.666;7.630;2023-02-08T02:03:48;21.67;;;13.07;;
7523;SDS011;3803;51.666;7.630;2023-02-08T02:04:08;21.73;;;13.05;;
7523;SDS011;3803;51.666;7.630;2023-02-08T02:04:29;21.92;;;13.35;;
7523;SDS011;3803;51.666;7.630;2023-02-08T02:04:50;22.37;;;13.30;;
7523;SDS011;3803;51.666;7.630;2023-02-08T02:05:11;20.70;;;13.25;;
7523;SDS011;3803;51.666;7.630;2023-02-08T02:05:43;20.77;;;13.20;;
7523;SDS011;3803;51.666;7.630;2023-02-08T02:06:13;21.85;;;13.35;;
7523;SDS011;3803;51.666;7.630;2023-02-08T02:06:41;22.30;;;13.00;;
7523;SDS011;3803;51.666;7.630;2023-02-08T02:07:05;21.83;;;13.30;;
7523;SDS011;3803;51.666;7.630;2023-02-08T02:07:27;20.63;;;13.05;;
7523;SDS011;3803;51.666;7.630;2023-02-08T02:07:49;21.38;;;13.40;;
7523;SDS011;3803;51.666;7.630;2023-02-08T02:08:13;22.45;;;13.48;;
7523;SDS011;3803;51.666;7.630;2023-02-08T02:08:33;21.80;;;13.77;;
7523;SDS011;3803;51.666;7.630;2023-02-08T02:09:58;20.92;;;12.90;;
7523;SDS011;3803;51.666;7.630;2023-02-08T02:10:29;21.50;;;13.25;;
7523;SDS011;3803;51.666;7.630;2023-02-08T02:10:52;21.77;;;13.00;;
7523;SDS011;3803;51.666;7.630;2023-02-08T02:11:12;22.03;;;12.57;;
7523;SDS011;3803;51.666;7.630;2023-02-08T02:11:33;21.23;;;12.80;;
7523;SDS011;3803;51.666;7.630;2023-02-08T02:11:54;21.80;;;13.20;;
7523;SDS011;3803;51.666;7.630;2023-02-08T02:12:16;20.10;;;13.05;;
7523;SDS011;3803;51.666;7.630;2023-02-08T02:12:38;20.63;;;12.27;;
7523;SDS011;3803;51.666;7.630;2023-02-08T02:13:02;21.27;;;12.57;;
7523;SDS011;3803;51.666;7.630;2023-02-08T02:13:27;21.30;;;12.93;;
7523;SDS011;3803;51.666;7.630;2023-02-08T02:13:48;21.25;;;13.13;;
7523;SDS011;3803;51.666;7.630;2023-02-08T02:14:10;22.05;;;13.18;;
7523;SDS011;3803;51.666;7.630;2023-02-08T02:14:31;22.30;;;13.50;;
7523;SDS011;3803;51.666;7.630;2023-02-08T02:14:52;22.83;;;13.52;;
7523;SDS011;3803;51.666;7.630;2023-02-08T02:15:14;22.73;;;13.68;;
7523;SDS011;3803;51.666;7.630;2023-02-08T02:15:35;22.25;;;13.23;;
7523;SDS011;3803;51.666;7.630;2023-02-08T02:15:56;19.88;;;13.20;;
7523;SDS011;3803;51.666;7.630;2023-02-08T02:16:17;20.53;;;13.20;;
7523;SDS011;3803;51.666;7.630;2023-02-08T02:16:37;23.58;;;13.70;;
7523;SDS011;3803;51.666;7.630;2023-02-08T02:16:59;24.67;;;13.57;;